| time (UTC) | temp F | wind direction | speed MPH | gust MPH | rain 1hr in | rain 24hr in | rain mn in | humidity % | barometer mb |
| 20260504024543 | 47 | 125 | 0.0 | 0.0 | 0.00 | 0.01 | 0.01 | 84 | 1016.6 |
| 20260504023031 | 48 | 125 | 0.0 | 0.0 | 0.00 | 0.01 | 0.01 | 82 | 1016.4 |
| 20260504021531 | 48 | 125 | 0.0 | 0.0 | 0.00 | 0.01 | 0.01 | 82 | 1016.1 |
| 20260504020030 | 49 | 129 | 0.0 | 1.0 | 0.00 | 0.01 | 0.01 | 80 | 1015.8 |
| 20260504014530 | 50 | 130 | 0.0 | 1.0 | 0.00 | 0.01 | 0.01 | 77 | 1015.6 |
| 20260504013029 | 51 | 140 | 0.0 | 1.0 | 0.00 | 0.01 | 0.01 | 76 | 1015.5 |
| 20260504011528 | 53 | 129 | 0.0 | 1.0 | 0.00 | 0.01 | 0.01 | 71 | 1015.7 |
| 20260504010029 | 56 | 140 | 0.0 | 3.0 | 0.00 | 0.01 | 0.01 | 64 | 1015.4 |
| 20260504004540 | 58 | 152 | 1.0 | 2.0 | 0.00 | 0.01 | 0.01 | 58 | 1015.5 |
| 20260504003027 | 62 | 151 | 2.0 | 2.0 | 0.00 | 0.01 | 0.01 | 47 | 1015.5 |
| 20260504001526 | 65 | 160 | 0.0 | 1.0 | 0.00 | 0.01 | 0.01 | 40 | 1015.6 |
| 20260504000024 | 66 | 257 | 1.0 | 4.0 | 0.00 | 0.01 | 0.01 | 37 | 1015.8 |
| 20260503234524 | 66 | 288 | 2.0 | 7.0 | 0.00 | 0.01 | 0.01 | 36 | 1015.9 |
| 20260503233029 | 67 | 269 | 0.0 | 7.0 | 0.00 | 0.01 | 0.01 | 37 | 1015.7 |
| 20260503231522 | 67 | 232 | 1.0 | 8.0 | 0.00 | 0.01 | 0.01 | 36 | 1015.7 |
| 20260503230019 | 67 | 248 | 5.0 | 10.0 | 0.00 | 0.01 | 0.01 | 35 | 1016.1 |
| 20260503224517 | 66 | 252 | 2.0 | 10.0 | 0.00 | 0.02 | 0.01 | 38 | 1016.3 |
| 20260503223017 | 66 | 241 | 1.0 | 9.0 | 0.00 | 0.02 | 0.01 | 38 | 1016.4 |
| 20260503221516 | 66 | 273 | 4.0 | 9.0 | 0.00 | 0.02 | 0.01 | 38 | 1016.6 |
| 20260503220015 | 66 | 289 | 7.0 | 10.0 | 0.00 | 0.02 | 0.01 | 37 | 1016.8 |
| 20260503214511 | 66 | 297 | 5.0 | 8.0 | 0.00 | 0.02 | 0.01 | 37 | 1016.9 |
| 20260503213015 | 66 | 236 | 5.0 | 10.0 | 0.00 | 0.02 | 0.01 | 38 | 1017.1 |
| 20260503211506 | 66 | 187 | 2.0 | 9.0 | 0.00 | 0.02 | 0.01 | 38 | 1017.2 |
| 20260503210004 | 65 | 329 | 5.0 | 11.0 | 0.00 | 0.02 | 0.01 | 37 | 1017.5 |
| 20260503204501 | 65 | 287 | 5.0 | 11.0 | 0.00 | 0.02 | 0.01 | 35 | 1017.7 |
| 20260503203101 | 64 | 290 | 3.0 | 12.0 | 0.00 | 0.02 | 0.01 | 37 | 1017.9 |
| 20260503201557 | 65 | 286 | 8.0 | 12.0 | 0.00 | 0.02 | 0.01 | 36 | 1018.3 |
| 20260503200155 | 64 | 238 | 4.0 | 11.0 | 0.00 | 0.02 | 0.01 | 39 | 1018.5 |
| 20260503194551 | 64 | 345 | 8.0 | 12.0 | 0.00 | 0.02 | 0.01 | 38 | 1018.7 |
| 20260503193055 | 64 | 302 | 3.0 | 9.0 | 0.00 | 0.02 | 0.01 | 36 | 1019.0 |
| 20260503191544 | 63 | 295 | 8.0 | 12.0 | 0.00 | 0.02 | 0.01 | 35 | 1019.2 |
| 20260503190044 | 62 | 325 | 5.0 | 12.0 | 0.00 | 0.02 | 0.01 | 41 | 1019.4 |
| 20260503184551 | 63 | 250 | 1.0 | 7.0 | 0.00 | 0.02 | 0.01 | 41 | 1019.6 |
| 20260503183037 | 62 | 350 | 3.0 | 12.0 | 0.00 | 0.02 | 0.01 | 40 | 1019.8 |
| 20260503181536 | 61 | 283 | 4.0 | 12.0 | 0.00 | 0.02 | 0.01 | 40 | 1020.1 |
| 20260503180031 | 61 | 355 | 1.0 | 9.0 | 0.00 | 0.02 | 0.01 | 40 | 1020.1 |
| 20260503174537 | 61 | 281 | 4.0 | 8.0 | 0.00 | 0.02 | 0.01 | 39 | 1020.5 |
| 20260503173027 | 59 | 8 | 3.0 | 10.0 | 0.00 | 0.02 | 0.01 | 40 | 1020.8 |
| 20260503171524 | 59 | 304 | 4.0 | 8.0 | 0.00 | 0.02 | 0.01 | 40 | 1020.9 |
| 20260503081508 | 39 | 148 | 0.0 | 0.0 | 0.00 | 0.01 | 0.00 | 96 | 1020.1 |
| 20260503071600 | 40 | 139 | 0.0 | 0.0 | 0.00 | 0.01 | 0.00 | 96 | 1019.9 |
| 20260503054551 | 39 | 140 | 0.0 | 0.0 | 0.00 | 0.01 | 0.00 | 95 | 1019.7 |
| 20260503053049 | 39 | 140 | 0.0 | 0.0 | 0.00 | 0.01 | 0.00 | 95 | 1019.6 |
| 20260503051547 | 40 | 140 | 0.0 | 1.0 | 0.00 | 0.01 | 0.00 | 95 | 1019.7 |
| 20260503050044 | 40 | 140 | 0.0 | 0.0 | 0.00 | 0.01 | 0.00 | 95 | 1019.5 |
| 20260503044547 | 41 | 140 | 0.0 | 0.0 | 0.00 | 0.01 | 0.01 | 96 | 1019.3 |
| 20260503043042 | 41 | 140 | 0.0 | 0.0 | 0.00 | 0.01 | 0.01 | 95 | 1019.1 |
| 20260503041539 | 42 | 140 | 0.0 | 0.0 | 0.00 | 0.01 | 0.01 | 95 | 1019.0 |
| 20260503040038 | 42 | 140 | 0.0 | 0.0 | 0.00 | 0.01 | 0.01 | 94 | 1018.9 |
| 20260503034552 | 42 | 141 | 0.0 | 0.0 | 0.00 | 0.01 | 0.01 | 94 | 1018.7 |
| 20260503033036 | 43 | 135 | 0.0 | 0.0 | 0.00 | 0.01 | 0.01 | 94 | 1018.9 |
| 20260503031536 | 43 | 135 | 0.0 | 0.0 | 0.00 | 0.01 | 0.01 | 93 | 1018.9 |
| 20260503030041 | 44 | 135 | 0.0 | 1.0 | 0.00 | 0.01 | 0.01 | 93 | 1018.8 |